CYZE

Gore Bay Manitoulin Airport

Gore Bay, Ontario, Canada
METAR CYZE 221700Z AUTO 36005KT 340V060 9SM FEW080 18/05 A3000 RMK SLP162 DENSITY ALT 1000FT
Observed Flight Rules
May-22 @ 17:00 UTC (56 minutes ago) Visual Flight Rules
Wind Visibility Clouds
360° at 5 knots 9 miles
  • Few at 8,000' AGL
Temperatures Readings
Current 18°C / 64°F
Dewpoint 5°C / 41°F
Humidity 43%
Altimeter 30" Hg
Pressure 1016.2 hPa
Elevation 193
METAR CYZE 221700Z AUTO 36005KT 340V060 9SM FEW080 18/05 A3000 RMK SLP162 DENSITY ALT 1000FT
Observed Flight Rules
May-22 @ 17:00 UTC
(56 minutes ago)
VFR
Wind Visibility
360° at 5 knots 9 miles
Clouds
  • Few at 8,000' AGL
Temperature Dewpoint
18°C / 64°F 5°C / 41°F
Humidity Altimeter Pressure
43% 30" Hg 1016.2 hPa